Valle Di Nervion — IBPC — position and weather

sailwx.info

Track history (hours):
 
Tides and Currents Weather Stations Pressure Air Temp Water Temp Dewpoint Dewpoint Depression Visibility Wind Speed Wind Dir Waves Ship Positions

Valle Di Nervion

Last reported at 2015-Aug-02 17:17 UTC. Time now 2015-Aug-03 06:39 UTC.
Position N 42°49' E 034°20'.

Length 176 m; draft 9.6 m.

Type: Ship. MMSI: 247109500.

Date/timePositionNaut miles runAvg speedWind from/ knotsBaromVisibWave heightAir tempDewpointWater temp
2015-Aug-02 17:17N 42°49' E 034°20'20112.6
2015-Aug-02 01:24N 43°54' E 038°40'1113.0
2015-Aug-02 00:33N 43°58' E 038°55'10 9.7
2015-Aug-01 23:32N 44°05' E 039°04'0 0.2
2015-Aug-01 22:32N 44°05' E 039°04'0 0.0
2015-Aug-01 21:32N 44°05' E 039°04'0 0.0
2015-Aug-01 20:32N 44°05' E 039°04'0 0.0
2015-Aug-01 19:32N 44°05' E 039°04'0 0.0
2015-Aug-01 18:32N 44°05' E 039°04'0 0.0
2015-Aug-01 17:32N 44°05' E 039°04'0 0.0
2015-Aug-01 16:32N 44°05' E 039°04'0 0.0
2015-Aug-01 15:32N 44°05' E 039°04'0 0.0
2015-Aug-01 14:32N 44°05' E 039°04'0 0.0
2015-Aug-01 13:32N 44°05' E 039°04'0 0.0
2015-Aug-01 12:32N 44°05' E 039°04'0 0.0
2015-Aug-01 11:32N 44°05' E 039°04'0 0.0
2015-Aug-01 10:32N 44°05' E 039°04'0 0.0
2015-Aug-01 09:32N 44°05' E 039°04'0 0.0
2015-Aug-01 08:29N 44°05' E 039°04'0 0.0
2015-Aug-01 07:32N 44°05' E 039°04'0 0.0
2015-Aug-01 06:32N 44°05' E 039°04'0 0.0
2015-Aug-01 05:32N 44°05' E 039°04'0 0.0
2015-Aug-01 04:32N 44°05' E 039°04'0 0.0
2015-Aug-01 03:32N 44°05' E 039°04'0 0.0
2015-Aug-01 02:32N 44°05' E 039°04'0 0.0
2015-Aug-01 01:32N 44°05' E 039°04'0 0.0
2015-Aug-01 00:32N 44°05' E 039°04'0 0.0
2015-Jul-31 23:32N 44°05' E 039°04'0 0.0
2015-Jul-31 22:32N 44°05' E 039°04'0 0.0
2015-Jul-31 21:32N 44°05' E 039°04'0 0.0
2015-Jul-31 20:32N 44°05' E 039°04'0 0.0
2015-Jul-31 19:32N 44°05' E 039°04'0 0.0
2015-Jul-31 18:33N 44°05' E 039°04'2 1.8
2015-Jul-31 17:32N 44°03' E 039°05'0 0.0
2015-Jul-31 16:32N 44°03' E 039°05'0 0.2
2015-Jul-31 15:32N 44°03' E 039°05'0 0.0
2015-Jul-31 14:32N 44°03' E 039°05'0 0.0
2015-Jul-31 13:33N 44°03' E 039°05'0 0.0
2015-Jul-31 12:33N 44°03' E 039°05'6 6.4
2015-Jul-31 11:33N 43°59' E 038°58'1414.2
2015-Jul-31 10:33N 43°54' E 038°40'1414.4
2015-Jul-31 09:33N 43°49' E 038°21'1514.5
2015-Jul-31 08:33N 43°44' E 038°02'1413.7
2015-Jul-31 07:33N 43°40' E 037°44'1110.6
2015-Jul-31 06:33N 43°38' E 037°30'1412.7
2015-Jul-31 05:27N 43°36' E 037°11'1112.0
2015-Jul-31 04:34N 43°35' E 036°56'10 9.6
2015-Jul-31 03:34N 43°34' E 036°43'10 9.5
2015-Jul-31 02:33N 43°33' E 036°30'9 9.4
2015-Jul-31 01:34N 43°32' E 036°17'9 9.4
2015-Jul-31 00:34N 43°31' E 036°04'19 9.6
2015-Jul-30 22:34N 43°28' E 035°38'10 9.9
2015-Jul-30 21:32N 43°27' E 035°24'10 9.8
2015-Jul-30 20:34N 43°26' E 035°11'10 9.7
2015-Jul-30 19:34N 43°25' E 034°58'10 9.8
2015-Jul-30 18:34N 43°22' E 034°45'10 9.8
2015-Jul-30 17:34N 43°19' E 034°32'8 7.6
2015-Jul-30 16:34N 43°16' E 034°22'10 9.6
2015-Jul-30 15:33N 43°13' E 034°10'10 9.6
2015-Jul-30 14:34N 43°10' E 033°57'10 9.5
2015-Jul-30 13:33N 43°06' E 033°45'41 9.9
2015-Jul-30 09:28N 42°52' E 032°53'  
2015-Jul-26 23:20N 37°54' E 025°32'1012.8
2015-Jul-26 22:33N 37°46' E 025°40'1313.2
2015-Jul-26 21:33N 37°35' E 025°49'1413.4
2015-Jul-26 20:33N 37°24' E 025°58'1312.9
2015-Jul-26 19:33N 37°12' E 026°04'1312.6
2015-Jul-26 18:33N 37°00' E 026°10'1312.8
2015-Jul-26 17:33N 36°51' E 026°21'1313.2
2015-Jul-26 16:33N 36°41' E 026°31'1313.3
2015-Jul-26 15:33N 36°31' E 026°43'1313.2
2015-Jul-26 14:33N 36°22' E 026°54'2613.2
2015-Jul-26 12:33N 36°03' E 027°17'1712.2
2015-Jul-26 11:08N 35°51' E 027°33'1212.1
2015-Jul-26 10:08N 35°43' E 027°44'812.7
2015-Jul-26 09:31N 35°40' E 027°53'1313.0
2015-Jul-26 08:33N 35°40' E 028°08'1312.8
2015-Jul-26 07:32N 35°40' E 028°24'1313.2
2015-Jul-26 06:33N 35°41' E 028°40'30012.5
2015-Jul-25 06:33N 36°45' E 034°43'  
Track history (hours):
 
Tides and Currents Weather Stations Pressure Air Temp Water Temp Dewpoint Dewpoint Depression Visibility Wind Speed Wind Dir Waves Ship Positions

Valle Di Nervion

Last reported at 2015-Aug-02 17:17 UTC. Time now 2015-Aug-03 06:39 UTC.
Position N 42°49' E 034°20'.

Length 176 m; draft 9.6 m.

Type: Ship. MMSI: 247109500.

Date/timePositionNaut miles runAvg speedWind from/ knotsBaromVisibWave heightAir tempDewpointWater temp
2015-Aug-02 17:17N 42°49' E 034°20'20112.6
2015-Aug-02 01:24N 43°54' E 038°40'1113.0
2015-Aug-02 00:33N 43°58' E 038°55'10 9.7
2015-Aug-01 23:32N 44°05' E 039°04'0 0.2
2015-Aug-01 22:32N 44°05' E 039°04'0 0.0
2015-Aug-01 21:32N 44°05' E 039°04'0 0.0
2015-Aug-01 20:32N 44°05' E 039°04'0 0.0
2015-Aug-01 19:32N 44°05' E 039°04'0 0.0
2015-Aug-01 18:32N 44°05' E 039°04'0 0.0
2015-Aug-01 17:32N 44°05' E 039°04'0 0.0
2015-Aug-01 16:32N 44°05' E 039°04'0 0.0
2015-Aug-01 15:32N 44°05' E 039°04'0 0.0
2015-Aug-01 14:32N 44°05' E 039°04'0 0.0
2015-Aug-01 13:32N 44°05' E 039°04'0 0.0
2015-Aug-01 12:32N 44°05' E 039°04'0 0.0
2015-Aug-01 11:32N 44°05' E 039°04'0 0.0
2015-Aug-01 10:32N 44°05' E 039°04'0 0.0
2015-Aug-01 09:32N 44°05' E 039°04'0 0.0
2015-Aug-01 08:29N 44°05' E 039°04'0 0.0
2015-Aug-01 07:32N 44°05' E 039°04'0 0.0
2015-Aug-01 06:32N 44°05' E 039°04'0 0.0
2015-Aug-01 05:32N 44°05' E 039°04'0 0.0
2015-Aug-01 04:32N 44°05' E 039°04'0 0.0
2015-Aug-01 03:32N 44°05' E 039°04'0 0.0
2015-Aug-01 02:32N 44°05' E 039°04'0 0.0
2015-Aug-01 01:32N 44°05' E 039°04'0 0.0
2015-Aug-01 00:32N 44°05' E 039°04'0 0.0
2015-Jul-31 23:32N 44°05' E 039°04'0 0.0
2015-Jul-31 22:32N 44°05' E 039°04'0 0.0
2015-Jul-31 21:32N 44°05' E 039°04'0 0.0
2015-Jul-31 20:32N 44°05' E 039°04'0 0.0
2015-Jul-31 19:32N 44°05' E 039°04'0 0.0
2015-Jul-31 18:33N 44°05' E 039°04'2 1.8
2015-Jul-31 17:32N 44°03' E 039°05'0 0.0
2015-Jul-31 16:32N 44°03' E 039°05'0 0.2
2015-Jul-31 15:32N 44°03' E 039°05'0 0.0
2015-Jul-31 14:32N 44°03' E 039°05'0 0.0
2015-Jul-31 13:33N 44°03' E 039°05'0 0.0
2015-Jul-31 12:33N 44°03' E 039°05'6 6.4
2015-Jul-31 11:33N 43°59' E 038°58'1414.2
2015-Jul-31 10:33N 43°54' E 038°40'1414.4
2015-Jul-31 09:33N 43°49' E 038°21'1514.5
2015-Jul-31 08:33N 43°44' E 038°02'1413.7
2015-Jul-31 07:33N 43°40' E 037°44'1110.6
2015-Jul-31 06:33N 43°38' E 037°30'1412.7
2015-Jul-31 05:27N 43°36' E 037°11'1112.0
2015-Jul-31 04:34N 43°35' E 036°56'10 9.6
2015-Jul-31 03:34N 43°34' E 036°43'10 9.5
2015-Jul-31 02:33N 43°33' E 036°30'9 9.4
2015-Jul-31 01:34N 43°32' E 036°17'9 9.4
2015-Jul-31 00:34N 43°31' E 036°04'19 9.6
2015-Jul-30 22:34N 43°28' E 035°38'10 9.9
2015-Jul-30 21:32N 43°27' E 035°24'10 9.8
2015-Jul-30 20:34N 43°26' E 035°11'10 9.7
2015-Jul-30 19:34N 43°25' E 034°58'10 9.8
2015-Jul-30 18:34N 43°22' E 034°45'10 9.8
2015-Jul-30 17:34N 43°19' E 034°32'8 7.6
2015-Jul-30 16:34N 43°16' E 034°22'10 9.6
2015-Jul-30 15:33N 43°13' E 034°10'10 9.6
2015-Jul-30 14:34N 43°10' E 033°57'10 9.5
2015-Jul-30 13:33N 43°06' E 033°45'41 9.9
2015-Jul-30 09:28N 42°52' E 032°53'  
2015-Jul-26 23:20N 37°54' E 025°32'1012.8
2015-Jul-26 22:33N 37°46' E 025°40'1313.2
2015-Jul-26 21:33N 37°35' E 025°49'1413.4
2015-Jul-26 20:33N 37°24' E 025°58'1312.9
2015-Jul-26 19:33N 37°12' E 026°04'1312.6
2015-Jul-26 18:33N 37°00' E 026°10'1312.8
2015-Jul-26 17:33N 36°51' E 026°21'1313.2
2015-Jul-26 16:33N 36°41' E 026°31'1313.3
2015-Jul-26 15:33N 36°31' E 026°43'1313.2
2015-Jul-26 14:33N 36°22' E 026°54'2613.2
2015-Jul-26 12:33N 36°03' E 027°17'1712.2
2015-Jul-26 11:08N 35°51' E 027°33'1212.1
2015-Jul-26 10:08N 35°43' E 027°44'812.7
2015-Jul-26 09:31N 35°40' E 027°53'1313.0
2015-Jul-26 08:33N 35°40' E 028°08'1312.8
2015-Jul-26 07:32N 35°40' E 028°24'1313.2
2015-Jul-26 06:33N 35°41' E 028°40'30012.5
2015-Jul-25 06:33N 36°45' E 034°43'  

Dump ship's entire track history